Briefing drone pour Sassenage

Rechercher une autre localisation

Conditions de vol :


Nous sommes le : Vendredi 27 janvier 2023
Il est 00:59 UTC (01:59 LT)

Lever de soleil : 06:36 UTC (07:36 LT)
Coucher de soleil : 17:03 UTC (18:03 LT)

Météo

L'essentiel des conditions de vol

VIGILANCE MÉTÉO FRANCE - Isère (38)
Pas de vigilances particulieres
CARTE TEMSI
CARTES DES FRONTS
METAR de LFLS
LFLS 270030Z AUTO 34012KT 9999 OVC011 M01/M03 Q1016

Date d'émission: 27/01/2023
Heure d'émission: 00:30 UTC
Vent: 340° pour 12 KT (22 km/h)
Visibilité horizontale: > 10 km
Plafond :
- Couvert à 1100ft (335m)
Température: -1 °C
Point de rosée: -3 °C
Humidité: 86%
Pression (QNH): 1016 hPa
TAF de LFLS
LFLS 262002Z 2620/2715 CNL

Conditions prévues :

Heure d'émission : Bulletin éffectué le 26 à 20:00 UTC
Prévision : Valide du 26 a 20:00 UTC au 27 a 15:00 UTC
Nuages : à 0ft (0 m)
WEBCAM POUR SASSENAGE

Réglementation

Voler en sécurité

CARTES AERONAUTIQUE 1/500.000
CARTE AZBA (Reseau basse altitude)
CARTES VAC (LFLS)
SUP AIP




Chargement des AIP...
NOTAM (SASSENAGE + Terrain à proximité / FIR )




Chargement des NOTAMS...
CONTACT PREFECTURE 38
Isère (38) : [email protected]


Avertissement : Les données mises à disposition sont indicatives. Oxygène Drone ne pourra être tenu responsable de dégâts causés aux biens et aux personnes.